WZZ69T EHEH-EPBY
Flight info
| Callsign | WZZ69T |
|---|---|
| Flight time | 1h 11m |
| Altitude | 30000 |
| Route | VELNI Y869 SUMOP DCT SAS L980 HLZ DCT ALUKA L619 DENKO N858 DEKUT Z96 LUXUD |
| Aircraft | A20N/M-SDE2E3FGHIRWXY/LB1 |
Departure
| Time | 2026-05-07 13:30 |
|---|---|
| Airport | Eindhoven Airport (EHEH) |
Arrival
| Time | 2026-05-07 14:41 |
|---|---|
| Airport | Ignacy Jan Paderewski Bydgoszcz Airport (EPBY) |
| Time | Latitude | Longitude | Altitude | Speed | Heading |
|---|---|---|---|---|---|
| 2026-05-07 12:59 | 51.45556 | 5.38744 | 86 ft | 0 kts | 125° |
| 2026-05-07 13:18 | 51.45557 | 5.38740 | 82 ft | 4 kts | 125° |
| 2026-05-07 13:18 | 51.45571 | 5.38708 | 84 ft | 4 kts | 125° |
| 2026-05-07 13:18 | 51.45586 | 5.38675 | 86 ft | 4 kts | 124° |
| 2026-05-07 13:19 | 51.45599 | 5.38640 | 88 ft | 4 kts | 92° |
| 2026-05-07 13:19 | 51.45596 | 5.38621 | 85 ft | 0 kts | 35° |
| 2026-05-07 13:21 | 51.45616 | 5.38644 | 84 ft | 8 kts | 34° |
| 2026-05-07 13:21 | 51.45688 | 5.38724 | 82 ft | 18 kts | 34° |
| 2026-05-07 13:21 | 51.45789 | 5.38811 | 84 ft | 9 kts | 353° |
| 2026-05-07 13:22 | 51.45838 | 5.38726 | 83 ft | 0 kts | 303° |
| 2026-05-07 13:22 | 51.45844 | 5.38712 | 85 ft | 0 kts | 303° |
| 2026-05-07 13:22 | 51.45847 | 5.38706 | 86 ft | 4 kts | 304° |
| 2026-05-07 13:23 | 51.45884 | 5.38618 | 84 ft | 15 kts | 305° |
| 2026-05-07 13:23 | 51.45963 | 5.38445 | 86 ft | 23 kts | 306° |
| 2026-05-07 13:23 | 51.45993 | 5.38379 | 86 ft | 0 kts | 306° |
| 2026-05-07 13:23 | 51.46004 | 5.38353 | 83 ft | 8 kts | 306° |
| 2026-05-07 13:24 | 51.45998 | 5.38281 | 84 ft | 6 kts | 189° |
| 2026-05-07 13:24 | 51.45955 | 5.38225 | 87 ft | 12 kts | 225° |
| 2026-05-07 13:24 | 51.45855 | 5.38110 | 87 ft | 23 kts | 214° |
| 2026-05-07 13:24 | 51.45702 | 5.37939 | 85 ft | 31 kts | 215° |
| 2026-05-07 13:25 | 51.45519 | 5.37731 | 86 ft | 33 kts | 215° |
| 2026-05-07 13:25 | 51.45347 | 5.37540 | 82 ft | 19 kts | 215° |
| 2026-05-07 13:25 | 51.45239 | 5.37419 | 85 ft | 20 kts | 215° |
| 2026-05-07 13:25 | 51.45132 | 5.37298 | 86 ft | 16 kts | 215° |
| 2026-05-07 13:26 | 51.45066 | 5.37225 | 84 ft | 18 kts | 214° |
| 2026-05-07 13:26 | 51.44970 | 5.37117 | 88 ft | 17 kts | 215° |
| 2026-05-07 13:26 | 51.44867 | 5.37001 | 85 ft | 18 kts | 215° |
| 2026-05-07 13:26 | 51.44761 | 5.36882 | 82 ft | 19 kts | 215° |
| 2026-05-07 13:27 | 51.44666 | 5.36775 | 85 ft | 16 kts | 215° |
| 2026-05-07 13:27 | 51.44580 | 5.36679 | 85 ft | 16 kts | 215° |
| 2026-05-07 13:27 | 51.44486 | 5.36573 | 84 ft | 15 kts | 215° |
| 2026-05-07 13:27 | 51.44401 | 5.36477 | 82 ft | 15 kts | 215° |
| 2026-05-07 13:28 | 51.44307 | 5.36371 | 87 ft | 18 kts | 215° |
| 2026-05-07 13:28 | 51.44209 | 5.36264 | 85 ft | 16 kts | 206° |
| 2026-05-07 13:28 | 51.44156 | 5.36296 | 83 ft | 0 kts | 135° |
| 2026-05-07 13:28 | 51.44144 | 5.36317 | 84 ft | 5 kts | 128° |
| 2026-05-07 13:29 | 51.44124 | 5.36384 | 86 ft | 9 kts | 103° |
| 2026-05-07 13:29 | 51.44152 | 5.36479 | 82 ft | 7 kts | 36° |
| 2026-05-07 13:29 | 51.44155 | 5.36484 | 81 ft | 3 kts | 36° |
| 2026-05-07 13:29 | 51.44318 | 5.36665 | 81 ft | 72 kts | 34° |
| 2026-05-07 13:30 | 51.44951 | 5.37370 | 86 ft | 149 kts | 35° |
| 2026-05-07 13:30 | 51.45851 | 5.38385 | 796 ft | 158 kts | 35° |
| 2026-05-07 13:30 | 51.46755 | 5.39409 | 1849 ft | 160 kts | 35° |
| 2026-05-07 13:30 | 51.47664 | 5.40443 | 2774 ft | 164 kts | 34° |
| 2026-05-07 13:31 | 51.48653 | 5.41550 | 3418 ft | 183 kts | 34° |
| 2026-05-07 13:31 | 51.49766 | 5.42784 | 3961 ft | 206 kts | 34° |
| 2026-05-07 13:31 | 51.50992 | 5.44183 | 4649 ft | 224 kts | 41° |
| 2026-05-07 13:31 | 51.51870 | 5.46262 | 5568 ft | 230 kts | 72° |
| 2026-05-07 13:32 | 51.51959 | 5.48829 | 6532 ft | 236 kts | 103° |
| 2026-05-07 13:32 | 51.51349 | 5.51302 | 7444 ft | 242 kts | 115° |
| 2026-05-07 13:32 | 51.50615 | 5.53755 | 8390 ft | 246 kts | 116° |
| 2026-05-07 13:32 | 51.49858 | 5.56251 | 9348 ft | 251 kts | 116° |
| 2026-05-07 13:33 | 51.49266 | 5.58917 | 10248 ft | 257 kts | 103° |
| 2026-05-07 13:33 | 51.48879 | 5.61794 | 10893 ft | 274 kts | 103° |
| 2026-05-07 13:33 | 51.48560 | 5.64942 | 11301 ft | 298 kts | 95° |
| 2026-05-07 13:33 | 51.48585 | 5.68394 | 11687 ft | 322 kts | 84° |
| 2026-05-07 13:34 | 51.48896 | 5.72087 | 12040 ft | 344 kts | 82° |
| 2026-05-07 13:34 | 51.49539 | 5.79873 | 13699 ft | 357 kts | 82° |
| 2026-05-07 13:34 | 51.49856 | 5.83845 | 14488 ft | 362 kts | 83° |
| 2026-05-07 13:35 | 51.50174 | 5.87872 | 15263 ft | 366 kts | 83° |
| 2026-05-07 13:35 | 51.50493 | 5.91948 | 16018 ft | 370 kts | 83° |
| 2026-05-07 13:35 | 51.50815 | 5.96077 | 16782 ft | 375 kts | 83° |
| 2026-05-07 13:35 | 51.51139 | 6.00251 | 17525 ft | 379 kts | 83° |
| 2026-05-07 13:36 | 51.51465 | 6.04480 | 18262 ft | 384 kts | 83° |
| 2026-05-07 13:36 | 51.51794 | 6.08763 | 18921 ft | 388 kts | 83° |
| 2026-05-07 13:36 | 51.52125 | 6.13080 | 19590 ft | 391 kts | 83° |
| 2026-05-07 13:36 | 51.52457 | 6.17430 | 20254 ft | 395 kts | 83° |
| 2026-05-07 13:37 | 51.52796 | 6.21827 | 20908 ft | 398 kts | 82° |
| 2026-05-07 13:37 | 51.53240 | 6.26242 | 21559 ft | 402 kts | 80° |
| 2026-05-07 13:37 | 51.53746 | 6.30674 | 22190 ft | 406 kts | 79° |
| 2026-05-07 13:37 | 51.54263 | 6.35153 | 22818 ft | 410 kts | 80° |
| 2026-05-07 13:38 | 51.54772 | 6.39672 | 23452 ft | 413 kts | 80° |
| 2026-05-07 13:38 | 51.55274 | 6.44235 | 23988 ft | 417 kts | 80° |
| 2026-05-07 13:38 | 51.55772 | 6.48839 | 24524 ft | 419 kts | 81° |
| 2026-05-07 13:38 | 51.56260 | 6.53410 | 25033 ft | 422 kts | 81° |
| 2026-05-07 13:39 | 51.56821 | 6.58055 | 25531 ft | 426 kts | 76° |
| 2026-05-07 13:39 | 51.57722 | 6.62600 | 26018 ft | 429 kts | 70° |
| 2026-05-07 13:39 | 51.58743 | 6.67121 | 26506 ft | 431 kts | 70° |
| 2026-05-07 13:39 | 51.59761 | 6.71676 | 26978 ft | 434 kts | 70° |
| 2026-05-07 13:40 | 51.60784 | 6.76268 | 27441 ft | 437 kts | 70° |
| 2026-05-07 13:40 | 51.61809 | 6.80880 | 27895 ft | 440 kts | 70° |
| 2026-05-07 13:40 | 51.62840 | 6.85530 | 28327 ft | 443 kts | 70° |
| 2026-05-07 13:40 | 51.63876 | 6.90217 | 28747 ft | 445 kts | 70° |
| 2026-05-07 13:41 | 51.64916 | 6.94931 | 29155 ft | 448 kts | 70° |
| 2026-05-07 13:41 | 51.65753 | 6.98736 | 29474 ft | 450 kts | 70° |
| 2026-05-07 13:41 | 51.66799 | 7.03500 | 29873 ft | 453 kts | 70° |
| 2026-05-07 13:41 | 51.67848 | 7.08284 | 30247 ft | 455 kts | 70° |
| 2026-05-07 13:42 | 51.68902 | 7.13108 | 30598 ft | 457 kts | 70° |
| 2026-05-07 13:42 | 51.69959 | 7.17954 | 30928 ft | 460 kts | 70° |
| 2026-05-07 13:42 | 51.71021 | 7.22834 | 31041 ft | 460 kts | 70° |
| 2026-05-07 13:43 | 51.73129 | 7.32559 | 31055 ft | 459 kts | 70° |
| 2026-05-07 13:43 | 51.75230 | 7.42290 | 31062 ft | 459 kts | 70° |
| 2026-05-07 13:44 | 51.77320 | 7.52019 | 31062 ft | 459 kts | 70° |
| 2026-05-07 13:44 | 51.79404 | 7.61769 | 31062 ft | 459 kts | 70° |
| 2026-05-07 13:45 | 51.81476 | 7.71505 | 31057 ft | 457 kts | 71° |
| 2026-05-07 13:45 | 51.83533 | 7.81221 | 31066 ft | 457 kts | 71° |
| 2026-05-07 13:46 | 51.85587 | 7.90968 | 31064 ft | 458 kts | 71° |
| 2026-05-07 13:46 | 51.87632 | 8.00720 | 31065 ft | 457 kts | 71° |
| 2026-05-07 13:47 | 51.89666 | 8.10466 | 31065 ft | 457 kts | 71° |
| 2026-05-07 13:47 | 51.91693 | 8.20227 | 31069 ft | 457 kts | 71° |
| 2026-05-07 13:48 | 51.93708 | 8.29978 | 31067 ft | 456 kts | 71° |
| 2026-05-07 13:48 | 51.95711 | 8.39718 | 31065 ft | 455 kts | 71° |
| 2026-05-07 13:49 | 51.97703 | 8.49453 | 31055 ft | 455 kts | 71° |
| 2026-05-07 13:49 | 51.99686 | 8.59186 | 31056 ft | 454 kts | 71° |
| 2026-05-07 13:50 | 52.01658 | 8.68918 | 31054 ft | 454 kts | 71° |
| 2026-05-07 13:50 | 52.03620 | 8.78650 | 31052 ft | 454 kts | 71° |
| 2026-05-07 13:51 | 52.05576 | 8.88401 | 31058 ft | 454 kts | 72° |
| 2026-05-07 13:51 | 52.07524 | 8.98158 | 31061 ft | 454 kts | 72° |
| 2026-05-07 13:52 | 52.09466 | 9.07933 | 31065 ft | 455 kts | 72° |
| 2026-05-07 13:52 | 52.11401 | 9.17726 | 31069 ft | 455 kts | 72° |
| 2026-05-07 13:53 | 52.13330 | 9.27534 | 31070 ft | 455 kts | 72° |
| 2026-05-07 13:53 | 52.15251 | 9.37354 | 31068 ft | 455 kts | 72° |
| 2026-05-07 13:54 | 52.17163 | 9.47176 | 31070 ft | 456 kts | 72° |
| 2026-05-07 13:54 | 52.19071 | 9.57033 | 31066 ft | 456 kts | 72° |
| 2026-05-07 13:55 | 52.20961 | 9.66842 | 31064 ft | 456 kts | 72° |
| 2026-05-07 13:55 | 52.22857 | 9.76731 | 31063 ft | 457 kts | 72° |
| 2026-05-07 13:56 | 52.24744 | 9.86647 | 31069 ft | 459 kts | 74° |
| 2026-05-07 13:56 | 52.26123 | 9.96837 | 31071 ft | 460 kts | 78° |
| 2026-05-07 13:57 | 52.27430 | 10.07036 | 31069 ft | 459 kts | 78° |
| 2026-05-07 13:57 | 52.28726 | 10.17250 | 31070 ft | 459 kts | 78° |
| 2026-05-07 13:58 | 52.30001 | 10.27453 | 31072 ft | 459 kts | 78° |
| 2026-05-07 13:58 | 52.31267 | 10.37681 | 31076 ft | 459 kts | 78° |
| 2026-05-07 13:59 | 52.32523 | 10.47913 | 31077 ft | 459 kts | 78° |
| 2026-05-07 13:59 | 52.33772 | 10.58160 | 31076 ft | 459 kts | 78° |
| 2026-05-07 14:00 | 52.35010 | 10.68398 | 31074 ft | 459 kts | 79° |
| 2026-05-07 14:00 | 52.36239 | 10.78629 | 31067 ft | 458 kts | 78° |
| 2026-05-07 14:01 | 52.37879 | 10.88701 | 31068 ft | 458 kts | 75° |
| 2026-05-07 14:01 | 52.39576 | 10.98743 | 31054 ft | 458 kts | 75° |
| 2026-05-07 14:02 | 52.41262 | 11.08803 | 31055 ft | 458 kts | 75° |
| 2026-05-07 14:02 | 52.42925 | 11.18808 | 31066 ft | 458 kts | 75° |
| 2026-05-07 14:03 | 52.44584 | 11.28852 | 31057 ft | 455 kts | 75° |
| 2026-05-07 14:03 | 52.46229 | 11.38864 | 31056 ft | 454 kts | 76° |
| 2026-05-07 14:04 | 52.47856 | 11.48843 | 31056 ft | 452 kts | 76° |
| 2026-05-07 14:04 | 52.49471 | 11.58797 | 31052 ft | 451 kts | 76° |
| 2026-05-07 14:05 | 52.51076 | 11.68746 | 31048 ft | 450 kts | 76° |
| 2026-05-07 14:05 | 52.52667 | 11.78675 | 31041 ft | 449 kts | 76° |
| 2026-05-07 14:06 | 52.54241 | 11.88561 | 31026 ft | 447 kts | 76° |
| 2026-05-07 14:06 | 52.55812 | 11.98480 | 31046 ft | 450 kts | 76° |
| 2026-05-07 14:07 | 52.57380 | 12.08440 | 31044 ft | 450 kts | 76° |
| 2026-05-07 14:07 | 52.58938 | 12.18397 | 31041 ft | 449 kts | 76° |
| 2026-05-07 14:08 | 52.60485 | 12.28346 | 31042 ft | 449 kts | 77° |
| 2026-05-07 14:08 | 52.62025 | 12.38305 | 31040 ft | 449 kts | 77° |
| 2026-05-07 14:09 | 52.63556 | 12.48275 | 31042 ft | 449 kts | 77° |
| 2026-05-07 14:09 | 52.65080 | 12.58259 | 31045 ft | 450 kts | 77° |
| 2026-05-07 14:10 | 52.66597 | 12.68254 | 31044 ft | 450 kts | 77° |
| 2026-05-07 14:10 | 52.68107 | 12.78264 | 31045 ft | 450 kts | 77° |
| 2026-05-07 14:11 | 52.69606 | 12.88274 | 31046 ft | 450 kts | 77° |
| 2026-05-07 14:11 | 52.71099 | 12.98302 | 31049 ft | 450 kts | 77° |
| 2026-05-07 14:12 | 52.72582 | 13.08326 | 31054 ft | 450 kts | 77° |
| 2026-05-07 14:12 | 52.73808 | 13.16661 | 31053 ft | 450 kts | 77° |
| 2026-05-07 14:13 | 52.75276 | 13.26704 | 31055 ft | 450 kts | 77° |
| 2026-05-07 14:13 | 52.76969 | 13.38367 | 31055 ft | 449 kts | 77° |
| 2026-05-07 14:14 | 52.78184 | 13.46780 | 31057 ft | 449 kts | 77° |
| 2026-05-07 14:14 | 52.79621 | 13.56798 | 31054 ft | 448 kts | 78° |
| 2026-05-07 14:15 | 52.81039 | 13.66762 | 31046 ft | 448 kts | 78° |
| 2026-05-07 14:15 | 52.82458 | 13.76788 | 31038 ft | 448 kts | 78° |
| 2026-05-07 14:16 | 52.83867 | 13.86813 | 31039 ft | 448 kts | 78° |
| 2026-05-07 14:16 | 52.85270 | 13.96851 | 31037 ft | 448 kts | 78° |
| 2026-05-07 14:17 | 52.86662 | 14.06885 | 31047 ft | 447 kts | 78° |
| 2026-05-07 14:17 | 52.88045 | 14.16927 | 31043 ft | 448 kts | 78° |
| 2026-05-07 14:18 | 52.89322 | 14.27004 | 31039 ft | 447 kts | 83° |
| 2026-05-07 14:18 | 52.89598 | 14.37254 | 31029 ft | 445 kts | 95° |
| 2026-05-07 14:19 | 52.89088 | 14.47475 | 31020 ft | 446 kts | 96° |
| 2026-05-07 14:19 | 52.88595 | 14.57727 | 31017 ft | 447 kts | 96° |
| 2026-05-07 14:20 | 52.88085 | 14.67994 | 31015 ft | 449 kts | 96° |
| 2026-05-07 14:20 | 52.87558 | 14.78307 | 31023 ft | 450 kts | 96° |
| 2026-05-07 14:21 | 52.87020 | 14.88650 | 31031 ft | 452 kts | 97° |
| 2026-05-07 14:21 | 52.86475 | 14.98938 | 31034 ft | 453 kts | 97° |
| 2026-05-07 14:22 | 52.85917 | 15.09332 | 31038 ft | 454 kts | 97° |
| 2026-05-07 14:22 | 52.85350 | 15.19756 | 31040 ft | 455 kts | 98° |
| 2026-05-07 14:23 | 52.84773 | 15.30188 | 31035 ft | 456 kts | 98° |
| 2026-05-07 14:23 | 52.84186 | 15.40651 | 31037 ft | 457 kts | 98° |
| 2026-05-07 14:24 | 52.83590 | 15.51084 | 30589 ft | 455 kts | 98° |
| 2026-05-07 14:24 | 52.83288 | 15.56308 | 29715 ft | 458 kts | 98° |
| 2026-05-07 14:24 | 52.82979 | 15.61584 | 28558 ft | 463 kts | 98° |
| 2026-05-07 14:24 | 52.82667 | 15.66879 | 27753 ft | 460 kts | 98° |
| 2026-05-07 14:25 | 52.82361 | 15.72083 | 27201 ft | 451 kts | 98° |
| 2026-05-07 14:25 | 52.82068 | 15.77201 | 26633 ft | 444 kts | 96° |
| 2026-05-07 14:25 | 52.82146 | 15.82271 | 26065 ft | 440 kts | 85° |
| 2026-05-07 14:25 | 52.82777 | 15.87190 | 25498 ft | 437 kts | 75° |
| 2026-05-07 14:26 | 52.83878 | 15.91854 | 24949 ft | 433 kts | 69° |
| 2026-05-07 14:26 | 52.85045 | 15.96402 | 24386 ft | 427 kts | 69° |
| 2026-05-07 14:26 | 52.86193 | 16.00905 | 23821 ft | 422 kts | 69° |
| 2026-05-07 14:26 | 52.87323 | 16.05365 | 23201 ft | 418 kts | 69° |
| 2026-05-07 14:27 | 52.88432 | 16.09750 | 22679 ft | 410 kts | 69° |
| 2026-05-07 14:27 | 52.89523 | 16.14076 | 22154 ft | 404 kts | 69° |
| 2026-05-07 14:27 | 52.90595 | 16.18335 | 21620 ft | 398 kts | 69° |
| 2026-05-07 14:27 | 52.91651 | 16.22539 | 21094 ft | 393 kts | 69° |
| 2026-05-07 14:28 | 52.92693 | 16.26695 | 20582 ft | 388 kts | 69° |
| 2026-05-07 14:28 | 52.93720 | 16.30801 | 20057 ft | 384 kts | 69° |
| 2026-05-07 14:28 | 52.94739 | 16.34878 | 19539 ft | 381 kts | 69° |
| 2026-05-07 14:28 | 52.95733 | 16.38864 | 19038 ft | 378 kts | 69° |
| 2026-05-07 14:29 | 52.96746 | 16.42934 | 18520 ft | 375 kts | 69° |
| 2026-05-07 14:29 | 52.97723 | 16.46864 | 17980 ft | 373 kts | 69° |
| 2026-05-07 14:29 | 52.98706 | 16.50824 | 17475 ft | 369 kts | 69° |
| 2026-05-07 14:29 | 52.99677 | 16.54746 | 16969 ft | 365 kts | 69° |
| 2026-05-07 14:30 | 53.00637 | 16.58631 | 16468 ft | 362 kts | 69° |
| 2026-05-07 14:30 | 53.01589 | 16.62490 | 15974 ft | 359 kts | 69° |
| 2026-05-07 14:30 | 53.02531 | 16.66317 | 15482 ft | 357 kts | 69° |
| 2026-05-07 14:30 | 53.03467 | 16.70125 | 14995 ft | 355 kts | 69° |
| 2026-05-07 14:31 | 53.04396 | 16.73908 | 14509 ft | 353 kts | 69° |
| 2026-05-07 14:31 | 53.05319 | 16.77677 | 14027 ft | 351 kts | 69° |
| 2026-05-07 14:31 | 53.06238 | 16.81431 | 13523 ft | 350 kts | 69° |
| 2026-05-07 14:31 | 53.07149 | 16.85161 | 13036 ft | 346 kts | 69° |
| 2026-05-07 14:32 | 53.08050 | 16.88854 | 12567 ft | 343 kts | 69° |
| 2026-05-07 14:32 | 53.08942 | 16.92516 | 12100 ft | 340 kts | 69° |
| 2026-05-07 14:32 | 53.09825 | 16.96148 | 11634 ft | 337 kts | 69° |
| 2026-05-07 14:32 | 53.10699 | 16.99752 | 11167 ft | 334 kts | 70° |
| 2026-05-07 14:33 | 53.11353 | 17.03424 | 10720 ft | 330 kts | 81° |
| 2026-05-07 14:33 | 53.11568 | 17.07199 | 10275 ft | 325 kts | 92° |
| 2026-05-07 14:33 | 53.11488 | 17.11009 | 10084 ft | 339 kts | 94° |
| 2026-05-07 14:33 | 53.11419 | 17.14955 | 10025 ft | 340 kts | 93° |
| 2026-05-07 14:34 | 53.11361 | 17.18881 | 10019 ft | 338 kts | 93° |
| 2026-05-07 14:34 | 53.11306 | 17.22694 | 10015 ft | 321 kts | 93° |
| 2026-05-07 14:34 | 53.11383 | 17.25876 | 9954 ft | 310 kts | 83° |
| 2026-05-07 14:34 | 53.11873 | 17.29228 | 9723 ft | 303 kts | 71° |
| 2026-05-07 14:35 | 53.12663 | 17.32465 | 9332 ft | 300 kts | 69° |
| 2026-05-07 14:35 | 53.13388 | 17.35697 | 8916 ft | 297 kts | 78° |
| 2026-05-07 14:35 | 53.13461 | 17.39070 | 8495 ft | 291 kts | 102° |
| 2026-05-07 14:35 | 53.12909 | 17.42297 | 8077 ft | 289 kts | 109° |
| 2026-05-07 14:36 | 53.12304 | 17.45476 | 7688 ft | 287 kts | 109° |
| 2026-05-07 14:36 | 53.11707 | 17.48631 | 7305 ft | 285 kts | 108° |
| 2026-05-07 14:36 | 53.11117 | 17.51763 | 6918 ft | 283 kts | 108° |
| 2026-05-07 14:36 | 53.10532 | 17.54873 | 6554 ft | 280 kts | 107° |
| 2026-05-07 14:37 | 53.09959 | 17.57926 | 6375 ft | 271 kts | 107° |
| 2026-05-07 14:37 | 53.08905 | 17.63550 | 5961 ft | 243 kts | 107° |
| 2026-05-07 14:37 | 53.08404 | 17.66215 | 5552 ft | 240 kts | 107° |
| 2026-05-07 14:38 | 53.07909 | 17.68843 | 5140 ft | 237 kts | 106° |
| 2026-05-07 14:38 | 53.07538 | 17.71477 | 4742 ft | 232 kts | 92° |
| 2026-05-07 14:38 | 53.07632 | 17.74086 | 4329 ft | 227 kts | 79° |
| 2026-05-07 14:38 | 53.07874 | 17.76659 | 3923 ft | 223 kts | 79° |
| 2026-05-07 14:39 | 53.08057 | 17.78703 | 3580 ft | 221 kts | 79° |
| 2026-05-07 14:39 | 53.08271 | 17.81184 | 3140 ft | 219 kts | 79° |
| 2026-05-07 14:39 | 53.08484 | 17.83672 | 2699 ft | 214 kts | 79° |
| 2026-05-07 14:39 | 53.08695 | 17.86036 | 2242 ft | 198 kts | 78° |
| 2026-05-07 14:40 | 53.08904 | 17.88173 | 1925 ft | 180 kts | 77° |
| 2026-05-07 14:40 | 53.09092 | 17.90189 | 1436 ft | 177 kts | 79° |
| 2026-05-07 14:40 | 53.09220 | 17.92209 | 919 ft | 171 kts | 80° |
| 2026-05-07 14:40 | 53.09372 | 17.94045 | 615 ft | 151 kts | 77° |
| 2026-05-07 14:41 | 53.09508 | 17.95715 | 325 ft | 140 kts | 79° |
| 2026-05-07 14:41 | 53.09640 | 17.97193 | 244 ft | 112 kts | 82° |
| 2026-05-07 14:41 | 53.09722 | 17.98196 | 244 ft | 66 kts | 82° |
| 2026-05-07 14:41 | 53.09745 | 17.98651 | 242 ft | 14 kts | 95° |
| 2026-05-07 14:42 | 53.09662 | 17.98746 | 243 ft | 18 kts | 171° |
| 2026-05-07 14:42 | 53.09535 | 17.98779 | 243 ft | 17 kts | 161° |
| 2026-05-07 14:42 | 53.09515 | 17.98902 | 243 ft | 12 kts | 84° |
| 2026-05-07 14:42 | 53.09526 | 17.99058 | 243 ft | 15 kts | 82° |
| 2026-05-07 14:43 | 53.09543 | 17.99248 | 243 ft | 18 kts | 81° |
| 2026-05-07 14:43 | 53.09562 | 17.99467 | 243 ft | 20 kts | 82° |
| 2026-05-07 14:43 | 53.09563 | 17.99665 | 243 ft | 13 kts | 131° |
| 2026-05-07 14:43 | 53.09482 | 17.99695 | 243 ft | 14 kts | 173° |
| 2026-05-07 14:44 | 53.09452 | 17.99701 | 243 ft | 0 kts | 173° |